sensor_id;sensor_type;location;lat;lon;timestamp;P1;P2;P0
80420;PMS5003;69762;54.858;73.420;2023-05-28T00:00:45;30.00;25.00;17.00
80420;PMS5003;69762;54.858;73.420;2023-05-28T00:03:11;27.25;23.75;15.50
80420;PMS5003;69762;54.858;73.420;2023-05-28T00:05:38;30.00;24.50;16.00
80420;PMS5003;69762;54.858;73.420;2023-05-28T00:08:04;35.00;27.00;17.00
80420;PMS5003;69762;54.858;73.420;2023-05-28T00:10:30;34.00;26.25;16.00
80420;PMS5003;69762;54.858;73.420;2023-05-28T00:12:56;34.00;25.00;17.50
80420;PMS5003;69762;54.858;73.420;2023-05-28T00:15:22;30.00;25.50;16.75
80420;PMS5003;69762;54.858;73.420;2023-05-28T00:17:48;35.00;28.00;18.00
80420;PMS5003;69762;54.858;73.420;2023-05-28T00:20:19;33.50;27.00;18.00
80420;PMS5003;69762;54.858;73.420;2023-05-28T00:22:45;32.75;26.00;17.50
80420;PMS5003;69762;54.858;73.420;2023-05-28T00:25:11;33.25;27.00;18.00
80420;PMS5003;69762;54.858;73.420;2023-05-28T00:27:37;31.50;26.00;17.00
80420;PMS5003;69762;54.858;73.420;2023-05-28T00:30:04;33.75;27.50;17.75
80420;PMS5003;69762;54.858;73.420;2023-05-28T00:32:30;31.50;25.00;17.00
80420;PMS5003;69762;54.858;73.420;2023-05-28T00:34:56;30.00;25.75;17.75
80420;PMS5003;69762;54.858;73.420;2023-05-28T00:37:22;32.00;25.50;16.00
80420;PMS5003;69762;54.858;73.420;2023-05-28T00:39:48;30.50;25.00;16.00
80420;PMS5003;69762;54.858;73.420;2023-05-28T00:42:14;30.50;24.00;16.75
80420;PMS5003;69762;54.858;73.420;2023-05-28T00:44:49;27.00;23.00;15.25
80420;PMS5003;69762;54.858;73.420;2023-05-28T00:47:15;28.00;23.25;15.25
80420;PMS5003;69762;54.858;73.420;2023-05-28T00:49:41;31.00;25.75;17.00
80420;PMS5003;69762;54.858;73.420;2023-05-28T00:52:08;29.00;23.75;16.00
80420;PMS5003;69762;54.858;73.420;2023-05-28T00:54:35;31.00;24.50;17.00
80420;PMS5003;69762;54.858;73.420;2023-05-28T00:57:01;29.75;23.75;16.75
80420;PMS5003;69762;54.858;73.420;2023-05-28T00:59:29;28.50;23.50;15.50
80420;PMS5003;69762;54.858;73.420;2023-05-28T01:01:55;34.00;28.00;17.00
80420;PMS5003;69762;54.858;73.420;2023-05-28T01:04:21;30.75;26.00;17.00
80420;PMS5003;69762;54.858;73.420;2023-05-28T01:06:55;27.00;22.50;15.00
80420;PMS5003;69762;54.858;73.420;2023-05-28T01:09:24;32.50;26.00;16.00
80420;PMS5003;69762;54.858;73.420;2023-05-28T01:11:51;30.00;24.00;16.00
80420;PMS5003;69762;54.858;73.420;2023-05-28T01:14:19;27.00;23.00;15.00
80420;PMS5003;69762;54.858;73.420;2023-05-28T01:16:45;26.00;23.00;17.00
80420;PMS5003;69762;54.858;73.420;2023-05-28T01:19:17;26.50;22.00;14.00
80420;PMS5003;69762;54.858;73.420;2023-05-28T01:21:45;26.00;22.00;14.00
80420;PMS5003;69762;54.858;73.420;2023-05-28T01:24:13;29.00;24.00;16.00
80420;PMS5003;69762;54.858;73.420;2023-05-28T01:26:43;25.75;22.00;16.00
80420;PMS5003;69762;54.858;73.420;2023-05-28T01:29:14;25.00;21.50;14.00
80420;PMS5003;69762;54.858;73.420;2023-05-28T01:31:42;24.00;21.00;14.00
80420;PMS5003;69762;54.858;73.420;2023-05-28T01:34:08;23.00;20.00;13.75
80420;PMS5003;69762;54.858;73.420;2023-05-28T01:36:35;26.00;21.50;14.00
80420;PMS5003;69762;54.858;73.420;2023-05-28T01:39:05;24.25;20.50;13.50
80420;PMS5003;69762;54.858;73.420;2023-05-28T01:41:33;24.00;20.25;13.00
80420;PMS5003;69762;54.858;73.420;2023-05-28T01:44:00;22.75;19.00;13.00
80420;PMS5003;69762;54.858;73.420;2023-05-28T01:46:28;22.25;19.00;12.75
80420;PMS5003;69762;54.858;73.420;2023-05-28T01:48:55;20.50;17.75;12.00
80420;PMS5003;69762;54.858;73.420;2023-05-28T01:51:21;21.00;18.75;12.25
80420;PMS5003;69762;54.858;73.420;2023-05-28T01:53:47;19.25;17.75;13.00
80420;PMS5003;69762;54.858;73.420;2023-05-28T01:56:13;17.75;15.00;11.00
80420;PMS5003;69762;54.858;73.420;2023-05-28T01:58:40;20.00;18.00;12.00
80420;PMS5003;69762;54.858;73.420;2023-05-28T02:01:09;17.25;15.50;11.00
80420;PMS5003;69762;54.858;73.420;2023-05-28T02:03:37;19.75;17.00;12.00
80420;PMS5003;69762;54.858;73.420;2023-05-28T02:06:03;20.50;18.00;12.75
80420;PMS5003;69762;54.858;73.420;2023-05-28T02:08:30;21.25;18.50;12.50
80420;PMS5003;69762;54.858;73.420;2023-05-28T02:10:56;20.50;16.75;12.25
80420;PMS5003;69762;54.858;73.420;2023-05-28T02:13:22;17.75;16.50;11.75
80420;PMS5003;69762;54.858;73.420;2023-05-28T02:15:51;19.25;16.00;11.25
80420;PMS5003;69762;54.858;73.420;2023-05-28T02:18:18;21.00;18.50;12.75
80420;PMS5003;69762;54.858;73.420;2023-05-28T02:20:45;22.75;19.00;12.75
80420;PMS5003;69762;54.858;73.420;2023-05-28T02:23:11;24.50;20.50;14.00
80420;PMS5003;69762;54.858;73.420;2023-05-28T02:25:38;27.25;23.50;15.25
80420;PMS5003;69762;54.858;73.420;2023-05-28T02:28:04;35.50;28.50;19.00
80420;PMS5003;69762;54.858;73.420;2023-05-28T02:30:31;36.00;28.00;19.00
80420;PMS5003;69762;54.858;73.420;2023-05-28T02:32:57;29.75;25.00;17.75
80420;PMS5003;69762;54.858;73.420;2023-05-28T02:35:23;22.00;20.00;14.00
80420;PMS5003;69762;54.858;73.420;2023-05-28T02:37:49;29.00;22.75;16.00
80420;PMS5003;69762;54.858;73.420;2023-05-28T02:40:16;26.00;21.25;15.00
80420;PMS5003;69762;54.858;73.420;2023-05-28T02:42:42;21.00;19.00;14.00
80420;PMS5003;69762;54.858;73.420;2023-05-28T02:45:09;17.50;15.00;10.75
80420;PMS5003;69762;54.858;73.420;2023-05-28T02:47:36;17.00;15.00;11.00
80420;PMS5003;69762;54.858;73.420;2023-05-28T02:50:02;15.75;14.25;10.75
80420;PMS5003;69762;54.858;73.420;2023-05-28T02:52:39;17.00;14.50;10.25
80420;PMS5003;69762;54.858;73.420;2023-05-28T02:55:05;22.25;19.50;15.00
80420;PMS5003;69762;54.858;73.420;2023-05-28T02:57:32;23.00;20.00;14.00
80420;PMS5003;69762;54.858;73.420;2023-05-28T02:59:59;14.50;13.00;10.00
80420;PMS5003;69762;54.858;73.420;2023-05-28T03:02:25;15.25;13.00;9.75
80420;PMS5003;69762;54.858;73.420;2023-05-28T03:04:52;16.00;14.00;9.00
80420;PMS5003;69762;54.858;73.420;2023-05-28T03:07:19;17.50;14.00;10.00
80420;PMS5003;69762;54.858;73.420;2023-05-28T03:09:45;18.00;14.00;9.00
80420;PMS5003;69762;54.858;73.420;2023-05-28T03:12:11;16.00;14.00;9.75
80420;PMS5003;69762;54.858;73.420;2023-05-28T03:14:37;16.00;15.00;10.25
80420;PMS5003;69762;54.858;73.420;2023-05-28T03:17:04;16.00;14.00;10.00
80420;PMS5003;69762;54.858;73.420;2023-05-28T03:19:30;16.00;14.00;10.00
80420;PMS5003;69762;54.858;73.420;2023-05-28T03:21:57;16.00;14.00;9.25
80420;PMS5003;69762;54.858;73.420;2023-05-28T03:24:29;13.00;11.00;8.00
80420;PMS5003;69762;54.858;73.420;2023-05-28T03:26:59;14.00;13.00;9.00
80420;PMS5003;69762;54.858;73.420;2023-05-28T03:29:25;13.75;13.00;10.00
80420;PMS5003;69762;54.858;73.420;2023-05-28T03:32:03;14.75;13.50;10.00
80420;PMS5003;69762;54.858;73.420;2023-05-28T03:34:29;14.00;12.25;10.00
80420;PMS5003;69762;54.858;73.420;2023-05-28T03:36:56;15.00;14.00;10.00
80420;PMS5003;69762;54.858;73.420;2023-05-28T03:39:23;14.00;12.00;9.00
80420;PMS5003;69762;54.858;73.420;2023-05-28T03:41:51;12.00;10.50;7.75
80420;PMS5003;69762;54.858;73.420;2023-05-28T03:44:18;14.00;13.00;9.00
80420;PMS5003;69762;54.858;73.420;2023-05-28T03:46:46;13.00;12.00;9.00
80420;PMS5003;69762;54.858;73.420;2023-05-28T03:49:12;13.00;12.00;8.00
80420;PMS5003;69762;54.858;73.420;2023-05-28T03:51:38;13.00;12.75;10.00
80420;PMS5003;69762;54.858;73.420;2023-05-28T03:54:04;15.00;13.75;10.00
80420;PMS5003;69762;54.858;73.420;2023-05-28T03:56:30;14.00;13.00;10.00
80420;PMS5003;69762;54.858;73.420;2023-05-28T03:58:59;12.75;11.50;9.75
80420;PMS5003;69762;54.858;73.420;2023-05-28T04:01:25;16.00;15.00;11.00
80420;PMS5003;69762;54.858;73.420;2023-05-28T04:03:53;15.00;13.00;10.00
80420;PMS5003;69762;54.858;73.420;2023-05-28T04:06:19;15.00;14.00;10.00
80420;PMS5003;69762;54.858;73.420;2023-05-28T04:08:46;16.00;15.00;12.00
80420;PMS5003;69762;54.858;73.420;2023-05-28T04:11:13;14.00;13.00;10.00
80420;PMS5003;69762;54.858;73.420;2023-05-28T04:13:39;14.50;14.00;11.00
80420;PMS5003;69762;54.858;73.420;2023-05-28T04:16:05;15.00;14.00;11.00
80420;PMS5003;69762;54.858;73.420;2023-05-28T04:18:33;18.00;16.00;11.75
80420;PMS5003;69762;54.858;73.420;2023-05-28T04:20:59;15.00;14.00;11.00
80420;PMS5003;69762;54.858;73.420;2023-05-28T04:23:26;16.00;15.00;11.00
80420;PMS5003;69762;54.858;73.420;2023-05-28T04:25:53;14.75;13.75;10.00
80420;PMS5003;69762;54.858;73.420;2023-05-28T04:28:19;15.25;14.00;9.75
80420;PMS5003;69762;54.858;73.420;2023-05-28T04:30:45;15.25;14.25;11.00
80420;PMS5003;69762;54.858;73.420;2023-05-28T04:33:16;14.00;13.00;10.00
80420;PMS5003;69762;54.858;73.420;2023-05-28T04:35:42;14.25;13.00;10.00
80420;PMS5003;69762;54.858;73.420;2023-05-28T04:38:08;13.25;12.00;10.00
80420;PMS5003;69762;54.858;73.420;2023-05-28T04:40:34;12.75;11.25;9.00
80420;PMS5003;69762;54.858;73.420;2023-05-28T04:43:01;15.00;14.00;10.75
80420;PMS5003;69762;54.858;73.420;2023-05-28T04:45:28;13.50;13.00;10.00
80420;PMS5003;69762;54.858;73.420;2023-05-28T04:47:54;14.00;12.50;9.50
80420;PMS5003;69762;54.858;73.420;2023-05-28T04:50:20;14.00;13.00;10.50
80420;PMS5003;69762;54.858;73.420;2023-05-28T04:52:49;14.00;13.00;10.00
80420;PMS5003;69762;54.858;73.420;2023-05-28T04:55:17;14.00;13.25;10.50
80420;PMS5003;69762;54.858;73.420;2023-05-28T04:57:44;15.50;14.00;11.00
80420;PMS5003;69762;54.858;73.420;2023-05-28T05:00:10;15.75;15.00;11.00
80420;PMS5003;69762;54.858;73.420;2023-05-28T05:02:39;12.50;12.00;9.25
80420;PMS5003;69762;54.858;73.420;2023-05-28T05:05:26;15.00;14.00;10.75
80420;PMS5003;69762;54.858;73.420;2023-05-28T05:07:52;12.00;11.75;9.00
80420;PMS5003;69762;54.858;73.420;2023-05-28T05:10:18;13.00;12.50;9.00
80420;PMS5003;69762;54.858;73.420;2023-05-28T05:12:45;14.00;13.00;10.00
80420;PMS5003;69762;54.858;73.420;2023-05-28T05:15:12;14.00;12.00;9.00
80420;PMS5003;69762;54.858;73.420;2023-05-28T05:17:38;13.00;12.00;9.00
80420;PMS5003;69762;54.858;73.420;2023-05-28T05:20:06;12.50;12.00;10.00
80420;PMS5003;69762;54.858;73.420;2023-05-28T05:22:34;13.75;12.25;9.00
80420;PMS5003;69762;54.858;73.420;2023-05-28T05:25:02;14.00;13.00;9.75
80420;PMS5003;69762;54.858;73.420;2023-05-28T05:27:28;13.00;11.50;9.00
80420;PMS5003;69762;54.858;73.420;2023-05-28T05:29:54;14.00;13.00;9.00
80420;PMS5003;69762;54.858;73.420;2023-05-28T05:32:20;14.00;13.00;10.00
80420;PMS5003;69762;54.858;73.420;2023-05-28T05:34:47;13.75;11.75;9.00
80420;PMS5003;69762;54.858;73.420;2023-05-28T05:37:25;12.75;12.00;9.00
80420;PMS5003;69762;54.858;73.420;2023-05-28T05:40:27;12.75;12.00;8.00
80420;PMS5003;69762;54.858;73.420;2023-05-28T05:42:57;12.00;11.00;8.00
80420;PMS5003;69762;54.858;73.420;2023-05-28T05:45:24;13.00;11.75;8.75
80420;PMS5003;69762;54.858;73.420;2023-05-28T05:47:51;12.00;11.00;9.00
80420;PMS5003;69762;54.858;73.420;2023-05-28T05:50:18;11.75;11.00;9.00
80420;PMS5003;69762;54.858;73.420;2023-05-28T05:52:44;10.00;10.00;8.00
80420;PMS5003;69762;54.858;73.420;2023-05-28T05:55:11;13.00;12.00;9.25
80420;PMS5003;69762;54.858;73.420;2023-05-28T05:57:38;11.00;10.25;8.25
80420;PMS5003;69762;54.858;73.420;2023-05-28T06:00:05;11.50;11.00;8.75
80420;PMS5003;69762;54.858;73.420;2023-05-28T06:02:42;13.00;13.00;9.00
80420;PMS5003;69762;54.858;73.420;2023-05-28T06:05:32;14.00;13.00;10.00
80420;PMS5003;69762;54.858;73.420;2023-05-28T06:08:30;12.00;10.75;8.50
80420;PMS5003;69762;54.858;73.420;2023-05-28T06:11:02;13.00;12.25;9.75
80420;PMS5003;69762;54.858;73.420;2023-05-28T06:13:28;15.00;14.00;10.00
80420;PMS5003;69762;54.858;73.420;2023-05-28T06:15:54;12.25;12.00;9.75
80420;PMS5003;69762;54.858;73.420;2023-05-28T06:18:20;13.00;12.00;9.00
80420;PMS5003;69762;54.858;73.420;2023-05-28T06:20:48;14.00;12.25;9.00
80420;PMS5003;69762;54.858;73.420;2023-05-28T06:23:16;17.50;16.00;12.75
80420;PMS5003;69762;54.858;73.420;2023-05-28T06:25:42;28.00;26.50;18.50
80420;PMS5003;69762;54.858;73.420;2023-05-28T06:28:10;422.75;392.00;280.50
80420;PMS5003;69762;54.858;73.420;2023-05-28T06:30:37;53.00;46.75;34.75
80420;PMS5003;69762;54.858;73.420;2023-05-28T06:33:04;17.50;16.50;12.75
80420;PMS5003;69762;54.858;73.420;2023-05-28T06:35:31;26.75;24.00;19.00
80420;PMS5003;69762;54.858;73.420;2023-05-28T06:37:57;152.00;144.50;120.50
80420;PMS5003;69762;54.858;73.420;2023-05-28T06:40:23;53.25;45.00;37.75
80420;PMS5003;69762;54.858;73.420;2023-05-28T06:42:51;22.00;21.00;16.50
80420;PMS5003;69762;54.858;73.420;2023-05-28T06:45:33;22.00;21.25;16.00
80420;PMS5003;69762;54.858;73.420;2023-05-28T06:48:01;167.25;152.25;109.75
80420;PMS5003;69762;54.858;73.420;2023-05-28T06:50:27;32.25;28.75;20.50
80420;PMS5003;69762;54.858;73.420;2023-05-28T06:52:55;93.25;90.00;72.50
80420;PMS5003;69762;54.858;73.420;2023-05-28T06:55:22;50.25;44.25;34.25
80420;PMS5003;69762;54.858;73.420;2023-05-28T06:58:05;49.00;42.75;34.25
80420;PMS5003;69762;54.858;73.420;2023-05-28T07:00:55;53.50;46.50;36.25
80420;PMS5003;69762;54.858;73.420;2023-05-28T07:03:47;22.50;20.75;16.75
80420;PMS5003;69762;54.858;73.420;2023-05-28T07:06:17;24.25;23.00;18.00
80420;PMS5003;69762;54.858;73.420;2023-05-28T07:08:43;17.00;16.50;13.25
80420;PMS5003;69762;54.858;73.420;2023-05-28T07:11:13;24.75;23.50;18.75
80420;PMS5003;69762;54.858;73.420;2023-05-28T07:13:44;29.50;27.25;22.00
80420;PMS5003;69762;54.858;73.420;2023-05-28T07:16:10;31.00;28.00;23.00
80420;PMS5003;69762;54.858;73.420;2023-05-28T07:18:37;15.00;14.00;11.00
80420;PMS5003;69762;54.858;73.420;2023-05-28T07:21:04;11.75;11.00;8.00
80420;PMS5003;69762;54.858;73.420;2023-05-28T07:23:39;33.00;29.00;23.00
80420;PMS5003;69762;54.858;73.420;2023-05-28T07:26:05;45.00;38.75;29.00
80420;PMS5003;69762;54.858;73.420;2023-05-28T07:28:31;75.00;69.50;58.25
80420;PMS5003;69762;54.858;73.420;2023-05-28T07:30:58;30.25;25.00;18.75
80420;PMS5003;69762;54.858;73.420;2023-05-28T07:33:25;17.25;15.50;11.75
80420;PMS5003;69762;54.858;73.420;2023-05-28T07:35:52;42.75;36.50;26.00
80420;PMS5003;69762;54.858;73.420;2023-05-28T07:38:19;65.00;51.75;35.25
80420;PMS5003;69762;54.858;73.420;2023-05-28T07:40:49;46.00;39.00;27.50
80420;PMS5003;69762;54.858;73.420;2023-05-28T07:43:27;14.75;14.00;11.50
80420;PMS5003;69762;54.858;73.420;2023-05-28T07:45:57;11.75;10.50;8.00
80420;PMS5003;69762;54.858;73.420;2023-05-28T07:48:29;14.50;14.00;10.75
80420;PMS5003;69762;54.858;73.420;2023-05-28T07:51:08;123.25;117.75;88.25
80420;PMS5003;69762;54.858;73.420;2023-05-28T07:53:44;487.50;418.25;283.25
80420;PMS5003;69762;54.858;73.420;2023-05-28T07:56:17;206.50;193.50;155.75
80420;PMS5003;69762;54.858;73.420;2023-05-28T07:58:44;42.00;36.50;28.00
80420;PMS5003;69762;54.858;73.420;2023-05-28T08:01:13;14.50;13.75;10.25
80420;PMS5003;69762;54.858;73.420;2023-05-28T08:03:39;15.00;14.00;11.00
80420;PMS5003;69762;54.858;73.420;2023-05-28T08:06:06;25.50;23.00;18.50
80420;PMS5003;69762;54.858;73.420;2023-05-28T08:08:36;15.75;14.00;11.00
80420;PMS5003;69762;54.858;73.420;2023-05-28T08:11:03;57.75;49.50;38.00
80420;PMS5003;69762;54.858;73.420;2023-05-28T08:13:29;17.50;15.75;11.25
80420;PMS5003;69762;54.858;73.420;2023-05-28T08:15:58;25.00;23.50;19.50
80420;PMS5003;69762;54.858;73.420;2023-05-28T08:18:25;13.00;12.00;9.00
80420;PMS5003;69762;54.858;73.420;2023-05-28T08:20:52;30.25;27.50;22.00
80420;PMS5003;69762;54.858;73.420;2023-05-28T08:23:24;75.00;68.50;59.75
80420;PMS5003;69762;54.858;73.420;2023-05-28T08:25:51;14.50;13.50;10.50
80420;PMS5003;69762;54.858;73.420;2023-05-28T08:28:26;345.25;286.75;159.50
80420;PMS5003;69762;54.858;73.420;2023-05-28T08:30:52;71.25;63.25;40.75
80420;PMS5003;69762;54.858;73.420;2023-05-28T08:33:35;16.00;14.50;10.75
80420;PMS5003;69762;54.858;73.420;2023-05-28T08:36:01;18.25;17.00;13.00
80420;PMS5003;69762;54.858;73.420;2023-05-28T08:38:28;40.00;34.00;24.00
80420;PMS5003;69762;54.858;73.420;2023-05-28T08:40:56;58.50;48.00;32.00
80420;PMS5003;69762;54.858;73.420;2023-05-28T08:43:23;38.00;32.00;22.25
80420;PMS5003;69762;54.858;73.420;2023-05-28T08:45:51;33.75;28.75;19.00
80420;PMS5003;69762;54.858;73.420;2023-05-28T08:48:21;211.50;187.75;118.75
80420;PMS5003;69762;54.858;73.420;2023-05-28T08:50:49;55.00;47.00;31.00
80420;PMS5003;69762;54.858;73.420;2023-05-28T08:53:27;37.50;32.00;21.75
80420;PMS5003;69762;54.858;73.420;2023-05-28T08:55:57;63.25;54.25;35.25
80420;PMS5003;69762;54.858;73.420;2023-05-28T08:58:24;11.00;10.00;7.00
80420;PMS5003;69762;54.858;73.420;2023-05-28T09:00:51;31.75;26.00;17.00
80420;PMS5003;69762;54.858;73.420;2023-05-28T09:03:32;12.00;11.00;9.00
80420;PMS5003;69762;54.858;73.420;2023-05-28T09:06:05;13.00;11.00;9.00
80420;PMS5003;69762;54.858;73.420;2023-05-28T09:08:32;12.00;11.00;9.00
80420;PMS5003;69762;54.858;73.420;2023-05-28T09:11:10;11.00;9.75;7.00
80420;PMS5003;69762;54.858;73.420;2023-05-28T09:13:43;12.00;11.00;9.00
80420;PMS5003;69762;54.858;73.420;2023-05-28T09:16:10;11.25;11.00;8.25
80420;PMS5003;69762;54.858;73.420;2023-05-28T09:18:37;25.75;22.25;15.00
80420;PMS5003;69762;54.858;73.420;2023-05-28T09:21:09;15.25;14.00;9.50
80420;PMS5003;69762;54.858;73.420;2023-05-28T09:23:38;12.00;11.00;7.00
80420;PMS5003;69762;54.858;73.420;2023-05-28T09:26:09;11.00;10.00;7.75
80420;PMS5003;69762;54.858;73.420;2023-05-28T09:28:50;11.00;10.00;8.00
80420;PMS5003;69762;54.858;73.420;2023-05-28T09:31:18;12.00;10.75;8.00
80420;PMS5003;69762;54.858;73.420;2023-05-28T09:33:44;13.00;12.00;9.00
80420;PMS5003;69762;54.858;73.420;2023-05-28T09:36:11;13.75;13.00;9.00
80420;PMS5003;69762;54.858;73.420;2023-05-28T09:38:37;11.00;10.00;8.00
80420;PMS5003;69762;54.858;73.420;2023-05-28T09:41:05;11.00;10.00;7.00
80420;PMS5003;69762;54.858;73.420;2023-05-28T09:43:43;11.00;10.00;8.00
80420;PMS5003;69762;54.858;73.420;2023-05-28T09:46:09;10.00;10.00;7.00
80420;PMS5003;69762;54.858;73.420;2023-05-28T09:48:36;10.00;10.00;7.00
80420;PMS5003;69762;54.858;73.420;2023-05-28T09:51:05;13.00;12.00;8.00
80420;PMS5003;69762;54.858;73.420;2023-05-28T09:53:33;10.50;9.00;7.00
80420;PMS5003;69762;54.858;73.420;2023-05-28T09:56:02;15.50;13.75;9.00
80420;PMS5003;69762;54.858;73.420;2023-05-28T09:58:32;10.00;9.00;7.00
80420;PMS5003;69762;54.858;73.420;2023-05-28T10:01:00;11.00;10.25;7.00
80420;PMS5003;69762;54.858;73.420;2023-05-28T10:03:39;13.00;11.00;9.00
80420;PMS5003;69762;54.858;73.420;2023-05-28T10:06:11;11.00;11.00;8.00
80420;PMS5003;69762;54.858;73.420;2023-05-28T10:08:37;11.50;10.75;8.00
80420;PMS5003;69762;54.858;73.420;2023-05-28T10:11:14;14.50;12.75;9.00
80420;PMS5003;69762;54.858;73.420;2023-05-28T10:13:41;12.00;10.00;7.00
80420;PMS5003;69762;54.858;73.420;2023-05-28T10:16:07;18.25;16.50;12.00
80420;PMS5003;69762;54.858;73.420;2023-05-28T10:18:34;32.00;28.00;20.00
80420;PMS5003;69762;54.858;73.420;2023-05-28T10:21:00;13.00;12.75;9.00
80420;PMS5003;69762;54.858;73.420;2023-05-28T10:23:28;37.75;32.50;22.50
80420;PMS5003;69762;54.858;73.420;2023-05-28T10:25:55;16.00;15.00;10.50
80420;PMS5003;69762;54.858;73.420;2023-05-28T10:28:21;10.25;9.00;7.00
80420;PMS5003;69762;54.858;73.420;2023-05-28T10:30:59;8.00;8.00;6.00
80420;PMS5003;69762;54.858;73.420;2023-05-28T10:33:25;8.50;8.00;6.00
80420;PMS5003;69762;54.858;73.420;2023-05-28T10:35:56;10.50;9.00;7.00
80420;PMS5003;69762;54.858;73.420;2023-05-28T10:38:23;9.00;8.00;6.00
80420;PMS5003;69762;54.858;73.420;2023-05-28T10:40:49;9.00;7.25;6.00
80420;PMS5003;69762;54.858;73.420;2023-05-28T10:44:00;11.50;10.00;7.00
80420;PMS5003;69762;54.858;73.420;2023-05-28T10:48:37;12.00;11.00;8.00
80420;PMS5003;69762;54.858;73.420;2023-05-28T10:51:04;11.00;10.00;8.00
80420;PMS5003;69762;54.858;73.420;2023-05-28T10:53:30;12.00;11.50;9.00
80420;PMS5003;69762;54.858;73.420;2023-05-28T10:55:56;10.50;9.75;7.25
80420;PMS5003;69762;54.858;73.420;2023-05-28T10:58:27;14.50;13.00;10.00
80420;PMS5003;69762;54.858;73.420;2023-05-28T11:01:18;12.00;12.00;9.00
80420;PMS5003;69762;54.858;73.420;2023-05-28T11:03:46;8.00;8.00;6.00
80420;PMS5003;69762;54.858;73.420;2023-05-28T11:06:15;11.00;10.00;7.00
80420;PMS5003;69762;54.858;73.420;2023-05-28T11:08:43;10.25;10.00;7.00
80420;PMS5003;69762;54.858;73.420;2023-05-28T11:11:10;7.00;6.25;4.50
80420;PMS5003;69762;54.858;73.420;2023-05-28T11:13:37;7.00;6.00;5.00
80420;PMS5003;69762;54.858;73.420;2023-05-28T11:16:10;7.00;7.00;5.00
80420;PMS5003;69762;54.858;73.420;2023-05-28T11:18:36;8.00;7.00;5.00
80420;PMS5003;69762;54.858;73.420;2023-05-28T11:21:03;7.50;7.00;5.25
80420;PMS5003;69762;54.858;73.420;2023-05-28T11:23:29;11.00;8.00;6.00
80420;PMS5003;69762;54.858;73.420;2023-05-28T11:25:56;7.00;6.50;5.00
80420;PMS5003;69762;54.858;73.420;2023-05-28T11:28:22;7.00;6.00;4.00
80420;PMS5003;69762;54.858;73.420;2023-05-28T11:30:50;7.00;7.00;5.00
80420;PMS5003;69762;54.858;73.420;2023-05-28T11:36:08;15.25;12.00;7.00
80420;PMS5003;69762;54.858;73.420;2023-05-28T11:38:34;5.00;5.00;4.00
80420;PMS5003;69762;54.858;73.420;2023-05-28T11:41:00;28.25;18.75;11.00
80420;PMS5003;69762;54.858;73.420;2023-05-28T11:43:27;107.75;81.75;36.00
80420;PMS5003;69762;54.858;73.420;2023-05-28T11:45:55;11.75;10.50;7.00
80420;PMS5003;69762;54.858;73.420;2023-05-28T11:48:22;10.50;9.50;7.25
80420;PMS5003;69762;54.858;73.420;2023-05-28T11:50:48;17.00;15.00;11.00
80420;PMS5003;69762;54.858;73.420;2023-05-28T11:53:14;8.25;7.50;6.00
80420;PMS5003;69762;54.858;73.420;2023-05-28T11:55:40;17.50;13.50;8.50
80420;PMS5003;69762;54.858;73.420;2023-05-28T11:58:06;65.75;47.25;25.00
80420;PMS5003;69762;54.858;73.420;2023-05-28T12:00:34;77.25;54.50;25.50
80420;PMS5003;69762;54.858;73.420;2023-05-28T12:03:01;238.00;169.00;67.00
80420;PMS5003;69762;54.858;73.420;2023-05-28T12:05:35;99.00;78.25;41.00
80420;PMS5003;69762;54.858;73.420;2023-05-28T12:08:01;301.00;214.00;94.00
80420;PMS5003;69762;54.858;73.420;2023-05-28T12:10:30;471.50;313.50;118.50
80420;PMS5003;69762;54.858;73.420;2023-05-28T12:12:57;68.75;45.75;20.00
80420;PMS5003;69762;54.858;73.420;2023-05-28T12:15:24;362.75;301.50;204.00
80420;PMS5003;69762;54.858;73.420;2023-05-28T12:17:55;14.00;12.00;8.25
80420;PMS5003;69762;54.858;73.420;2023-05-28T12:23:01;130.25;112.50;77.00
80420;PMS5003;69762;54.858;73.420;2023-05-28T12:25:27;678.50;558.75;270.50
80420;PMS5003;69762;54.858;73.420;2023-05-28T12:27:53;613.00;484.75;234.50
80420;PMS5003;69762;54.858;73.420;2023-05-28T12:30:19;1227.75;876.25;331.00
80420;PMS5003;69762;54.858;73.420;2023-05-28T12:32:45;339.25;275.75;145.50
80420;PMS5003;69762;54.858;73.420;2023-05-28T12:35:11;476.00;389.25;214.50
80420;PMS5003;69762;54.858;73.420;2023-05-28T12:37:38;380.75;309.75;165.50
80420;PMS5003;69762;54.858;73.420;2023-05-28T12:43:02;76.25;67.00;45.50
80420;PMS5003;69762;54.858;73.420;2023-05-28T12:45:28;69.75;56.75;39.50
80420;PMS5003;69762;54.858;73.420;2023-05-28T12:47:56;177.75;144.75;70.50
80420;PMS5003;69762;54.858;73.420;2023-05-28T12:50:22;55.25;45.25;33.00
80420;PMS5003;69762;54.858;73.420;2023-05-28T12:52:50;12.00;10.75;8.50
80420;PMS5003;69762;54.858;73.420;2023-05-28T12:55:16;165.75;160.25;124.50
80420;PMS5003;69762;54.858;73.420;2023-05-28T12:57:43;208.75;193.25;138.75
80420;PMS5003;69762;54.858;73.420;2023-05-28T13:00:12;79.75;71.00;57.75
80420;PMS5003;69762;54.858;73.420;2023-05-28T13:02:39;262.75;248.50;182.25
80420;PMS5003;69762;54.858;73.420;2023-05-28T13:05:06;275.75;265.25;221.75
80420;PMS5003;69762;54.858;73.420;2023-05-28T13:07:33;55.50;46.75;34.00
80420;PMS5003;69762;54.858;73.420;2023-05-28T13:10:00;183.75;175.25;137.00
80420;PMS5003;69762;54.858;73.420;2023-05-28T13:12:26;204.50;189.00;148.25
80420;PMS5003;69762;54.858;73.420;2023-05-28T13:14:52;510.50;443.75;258.25
80420;PMS5003;69762;54.858;73.420;2023-05-28T13:17:18;377.50;360.00;268.50
80420;PMS5003;69762;54.858;73.420;2023-05-28T13:19:47;101.25;88.75;63.25
80420;PMS5003;69762;54.858;73.420;2023-05-28T13:22:15;18.00;17.00;12.00
80420;PMS5003;69762;54.858;73.420;2023-05-28T13:24:41;15.00;14.00;11.25
80420;PMS5003;69762;54.858;73.420;2023-05-28T13:27:07;13.25;12.25;8.00
80420;PMS5003;69762;54.858;73.420;2023-05-28T13:29:34;46.50;39.00;25.50
80420;PMS5003;69762;54.858;73.420;2023-05-28T13:32:00;155.50;144.25;97.50
80420;PMS5003;69762;54.858;73.420;2023-05-28T13:34:26;75.25;64.50;44.75
80420;PMS5003;69762;54.858;73.420;2023-05-28T13:36:52;62.25;52.25;31.50
80420;PMS5003;69762;54.858;73.420;2023-05-28T13:39:18;48.25;40.50;28.75
80420;PMS5003;69762;54.858;73.420;2023-05-28T13:41:48;70.75;61.25;44.50
80420;PMS5003;69762;54.858;73.420;2023-05-28T13:44:14;35.75;30.00;22.00
80420;PMS5003;69762;54.858;73.420;2023-05-28T13:46:40;17.00;15.00;10.00
80420;PMS5003;69762;54.858;73.420;2023-05-28T13:49:06;11.50;10.50;8.00
80420;PMS5003;69762;54.858;73.420;2023-05-28T13:51:32;9.00;8.00;6.00
80420;PMS5003;69762;54.858;73.420;2023-05-28T13:53:59;11.00;10.00;7.00